createdAt,value
2017-11-26T00:00:26.666Z,11.90
2017-11-26T00:02:54.092Z,12.53
2017-11-26T00:05:21.537Z,13.35
2017-11-26T00:07:48.976Z,11.90
2017-11-26T00:10:17.178Z,11.95
2017-11-26T00:12:44.637Z,12.60
2017-11-26T00:15:12.092Z,10.85
2017-11-26T00:17:39.549Z,11.35
2017-11-26T00:20:06.989Z,11.35
2017-11-26T00:22:35.184Z,11.30
2017-11-26T00:25:02.704Z,12.45
2017-11-26T00:27:30.967Z,12.80
2017-11-26T00:29:58.410Z,13.20
2017-11-26T00:32:25.863Z,13.18
2017-11-26T00:34:53.343Z,15.02
2017-11-26T00:37:20.783Z,14.50
2017-11-26T00:39:48.239Z,13.93
2017-11-26T00:42:15.927Z,14.82
2017-11-26T00:44:44.196Z,15.43
2017-11-26T00:47:11.741Z,13.93
2017-11-26T00:49:39.195Z,14.60
2017-11-26T00:52:06.654Z,16.23
2017-11-26T00:54:34.212Z,15.30
2017-11-26T00:57:01.671Z,16.80
2017-11-26T00:59:29.127Z,15.82
2017-11-26T01:01:56.684Z,16.98
2017-11-26T01:04:24.144Z,16.60
2017-11-26T01:06:51.586Z,16.80
2017-11-26T01:09:19.007Z,17.10
2017-11-26T01:11:46.505Z,16.65
2017-11-26T01:14:13.947Z,18.33
2017-11-26T01:16:41.385Z,16.87
2017-11-26T01:19:08.820Z,16.98
2017-11-26T01:21:36.344Z,16.20
2017-11-26T01:24:03.802Z,16.85
2017-11-26T01:26:31.343Z,18.77
2017-11-26T01:28:58.798Z,18.42
2017-11-26T01:31:26.242Z,18.10
2017-11-26T01:33:53.680Z,18.55
2017-11-26T01:36:21.155Z,17.35
2017-11-26T01:38:48.601Z,19.23
2017-11-26T01:41:16.044Z,20.23
2017-11-26T01:43:43.487Z,19.27
2017-11-26T01:46:10.937Z,20.75
2017-11-26T01:48:38.407Z,20.08
2017-11-26T01:51:05.839Z,19.10
2017-11-26T01:53:34.044Z,18.45
2017-11-26T01:56:01.492Z,20.95
2017-11-26T01:58:28.948Z,20.70
2017-11-26T02:00:56.390Z,20.52
2017-11-26T02:03:24.625Z,21.77
2017-11-26T02:05:52.067Z,21.75
2017-11-26T02:08:19.508Z,20.73
2017-11-26T02:10:46.985Z,20.83
2017-11-26T02:13:14.421Z,21.85
2017-11-26T02:15:41.899Z,23.70
2017-11-26T02:18:09.335Z,22.83
2017-11-26T02:20:36.815Z,20.33
2017-11-26T02:23:04.259Z,21.52
2017-11-26T02:25:31.712Z,20.90
2017-11-26T02:27:59.196Z,22.20
2017-11-26T02:30:26.727Z,22.55
2017-11-26T02:33:06.109Z,20.60
2017-11-26T02:38:42.843Z,19.12
2017-11-26T02:41:10.288Z,20.45
2017-11-26T02:43:37.757Z,22.30
2017-11-26T02:46:05.246Z,22.30
2017-11-26T02:48:32.686Z,20.20
2017-11-26T02:51:00.254Z,19.70
2017-11-26T02:53:27.756Z,19.43
2017-11-26T02:55:55.957Z,18.40
2017-11-26T02:58:23.436Z,19.37
2017-11-26T03:00:50.991Z,18.98
2017-11-26T03:03:18.469Z,18.50
2017-11-26T03:05:45.912Z,19.90
2017-11-26T03:08:13.352Z,18.07
2017-11-26T03:10:40.844Z,19.50
2017-11-26T03:13:08.297Z,18.83
2017-11-26T03:15:35.768Z,20.15
2017-11-26T03:18:03.224Z,20.60
2017-11-26T03:20:30.666Z,19.90
2017-11-26T03:22:58.100Z,21.48
2017-11-26T03:25:25.553Z,20.75
2017-11-26T03:27:53.052Z,22.10
2017-11-26T03:30:20.476Z,20.20
2017-11-26T03:32:47.928Z,21.40
2017-11-26T03:35:15.392Z,21.65
2017-11-26T03:37:42.837Z,19.35
2017-11-26T03:40:10.305Z,18.65
2017-11-26T03:42:37.753Z,18.50
2017-11-26T03:45:05.211Z,18.83
2017-11-26T03:47:32.684Z,19.27
2017-11-26T03:50:00.136Z,17.35
2017-11-26T03:52:27.602Z,18.87
2017-11-26T03:54:55.041Z,18.00
2017-11-26T03:57:22.509Z,17.80
2017-11-26T03:59:49.953Z,17.83
2017-11-26T04:02:17.396Z,16.67
2017-11-26T04:04:44.837Z,17.50
2017-11-26T04:07:13.865Z,16.80
2017-11-26T04:09:41.305Z,18.08
2017-11-26T04:12:08.779Z,17.67
2017-11-26T04:14:36.237Z,17.45
2017-11-26T04:17:03.676Z,17.83
2017-11-26T04:19:31.113Z,18.25
2017-11-26T04:21:58.556Z,17.73
2017-11-26T04:24:26.026Z,18.48
2017-11-26T04:26:53.505Z,17.58
2017-11-26T04:29:20.943Z,18.10
2017-11-26T04:34:23.153Z,17.60
2017-11-26T04:36:50.712Z,17.75
2017-11-26T04:39:19.112Z,18.20
2017-11-26T04:41:46.563Z,18.05
2017-11-26T04:44:14.006Z,18.17
2017-11-26T04:46:41.559Z,18.17
2017-11-26T04:49:09.107Z,17.48
2017-11-26T04:51:36.546Z,16.40
2017-11-26T04:54:03.972Z,15.27
2017-11-26T04:56:31.414Z,17.43
2017-11-26T04:58:58.903Z,17.63
2017-11-26T05:01:26.392Z,17.17
2017-11-26T05:03:53.970Z,17.70
2017-11-26T05:06:21.435Z,17.37
2017-11-26T05:08:49.069Z,17.23
2017-11-26T05:11:16.496Z,19.33
2017-11-26T05:13:43.945Z,18.17
2017-11-26T05:16:11.541Z,16.80
2017-11-26T05:18:38.976Z,17.37
2017-11-26T05:21:06.411Z,17.33
2017-11-26T05:23:33.876Z,16.62
2017-11-26T05:26:01.300Z,15.90
2017-11-26T05:28:28.869Z,17.17
2017-11-26T05:30:56.288Z,14.68
2017-11-26T05:33:23.836Z,15.98
2017-11-26T05:35:51.291Z,15.85
2017-11-26T05:38:18.732Z,15.30
2017-11-26T05:40:46.321Z,15.85
2017-11-26T05:43:13.751Z,15.52
2017-11-26T05:45:41.191Z,15.90
2017-11-26T05:48:08.640Z,17.65
2017-11-26T05:50:36.077Z,16.98
2017-11-26T05:53:04.318Z,17.23
2017-11-26T05:55:31.773Z,17.05
2017-11-26T05:57:59.237Z,16.67
2017-11-26T06:00:26.676Z,16.87
2017-11-26T06:02:54.144Z,16.17
2017-11-26T06:05:21.584Z,16.92
2017-11-26T06:07:49.031Z,17.02
2017-11-26T06:10:16.488Z,16.33
2017-11-26T06:12:43.943Z,15.52
2017-11-26T06:15:11.396Z,16.25
2017-11-26T06:17:38.856Z,16.48
2017-11-26T06:20:06.316Z,16.62
2017-11-26T06:22:33.778Z,15.65
2017-11-26T06:25:01.222Z,15.25
2017-11-26T06:27:28.652Z,15.07
2017-11-26T06:29:56.915Z,16.02
2017-11-26T06:32:24.410Z,15.13
2017-11-26T06:34:51.844Z,16.00
2017-11-26T06:37:19.280Z,15.25
2017-11-26T06:39:46.723Z,15.70
2017-11-26T06:42:14.173Z,14.70
2017-11-26T06:44:41.632Z,15.63
2017-11-26T06:47:09.163Z,16.83
2017-11-26T06:49:36.618Z,15.88
2017-11-26T06:52:04.035Z,17.52
2017-11-26T06:54:31.476Z,17.50
2017-11-26T06:56:59.716Z,18.10
2017-11-26T06:59:27.178Z,17.77
2017-11-26T07:01:54.668Z,18.25
2017-11-26T07:04:22.113Z,19.92
2017-11-26T07:06:49.539Z,20.20
2017-11-26T07:09:17.017Z,21.12
2017-11-26T07:11:44.556Z,20.30
2017-11-26T07:14:11.999Z,21.15
2017-11-26T07:16:39.452Z,20.75
2017-11-26T07:19:06.884Z,20.90
2017-11-26T07:21:34.329Z,22.37
2017-11-26T07:24:02.563Z,23.20
2017-11-26T07:26:30.027Z,23.02
2017-11-26T07:28:57.481Z,23.33
2017-11-26T07:31:24.930Z,24.55
2017-11-26T07:33:52.396Z,24.70
2017-11-26T07:36:19.852Z,26.37
2017-11-26T07:38:48.788Z,25.42
2017-11-26T07:41:16.228Z,24.58
2017-11-26T07:43:44.424Z,25.45
2017-11-26T07:46:11.933Z,27.00
2017-11-26T07:48:39.372Z,26.37
2017-11-26T07:51:06.841Z,26.70
2017-11-26T07:53:34.278Z,25.30
2017-11-26T07:56:01.736Z,25.37
2017-11-26T07:58:29.226Z,25.85
2017-11-26T08:00:56.759Z,26.98
2017-11-26T08:03:24.211Z,25.83
2017-11-26T08:05:51.795Z,26.60
2017-11-26T08:08:19.332Z,26.65
2017-11-26T08:10:46.775Z,26.67
2017-11-26T08:13:14.243Z,26.90
2017-11-26T08:15:41.775Z,27.33
2017-11-26T08:18:09.258Z,26.40
2017-11-26T08:20:36.711Z,25.75
2017-11-26T08:23:04.160Z,26.40
2017-11-26T08:25:31.671Z,27.13
2017-11-26T08:27:59.140Z,26.33
2017-11-26T08:30:26.674Z,26.17
2017-11-26T08:32:54.141Z,26.70
2017-11-26T08:35:21.624Z,26.08
2017-11-26T08:37:49.080Z,26.42
2017-11-26T08:40:16.528Z,25.52
2017-11-26T08:42:43.980Z,24.87
2017-11-26T08:45:11.420Z,24.27
2017-11-26T08:47:38.916Z,26.02
2017-11-26T08:50:06.378Z,24.30
2017-11-26T08:52:33.820Z,25.15
2017-11-26T08:55:01.364Z,24.25
2017-11-26T08:57:28.806Z,22.95
2017-11-26T08:59:56.224Z,23.25
2017-11-26T09:02:24.443Z,23.47
2017-11-26T09:04:51.875Z,24.27
2017-11-26T09:10:19.282Z,23.50
2017-11-26T09:12:46.710Z,23.60
2017-11-26T09:15:14.145Z,23.13
2017-11-26T09:17:42.367Z,22.87
2017-11-26T09:20:09.804Z,23.10
2017-11-26T09:22:37.260Z,23.20
2017-11-26T09:25:04.674Z,22.27
2017-11-26T09:27:32.123Z,22.27
2017-11-26T09:29:59.571Z,22.95
2017-11-26T09:32:27.028Z,23.02
2017-11-26T09:34:54.576Z,22.85
2017-11-26T09:37:22.028Z,22.10
2017-11-26T09:39:49.466Z,22.17
2017-11-26T09:42:16.958Z,22.10
2017-11-26T09:44:44.410Z,24.25
2017-11-26T09:47:11.958Z,23.23
2017-11-26T09:49:39.379Z,23.53
2017-11-26T09:52:06.851Z,22.17
2017-11-26T09:54:34.280Z,21.85
2017-11-26T09:57:01.791Z,20.20
2017-11-26T09:59:29.272Z,20.58
2017-11-26T10:01:56.790Z,21.50
2017-11-26T10:04:24.243Z,21.52
2017-11-26T10:06:51.808Z,21.30
2017-11-26T10:09:19.241Z,21.60
2017-11-26T10:11:46.670Z,21.08
2017-11-26T10:14:14.115Z,21.00
2017-11-26T10:16:42.326Z,21.30
2017-11-26T10:19:09.918Z,21.40
2017-11-26T10:21:37.371Z,20.60
2017-11-26T10:24:04.818Z,19.62
2017-11-26T10:26:32.304Z,20.60
2017-11-26T10:28:59.828Z,19.73
2017-11-26T10:31:27.305Z,20.15
2017-11-26T10:33:55.531Z,18.10
2017-11-26T10:36:22.972Z,18.08
2017-11-26T10:38:51.195Z,18.65
2017-11-26T10:41:18.636Z,18.00
2017-11-26T10:43:46.105Z,18.00
2017-11-26T10:46:13.543Z,17.73
2017-11-26T10:48:40.982Z,17.70
2017-11-26T10:51:08.423Z,17.70
2017-11-26T10:53:35.897Z,16.73
2017-11-26T10:56:03.421Z,16.48
2017-11-26T10:58:31.637Z,17.42
2017-11-26T11:00:59.079Z,16.25
2017-11-26T11:03:27.400Z,16.58
2017-11-26T11:05:55.009Z,17.12
2017-11-26T11:08:23.203Z,17.48
2017-11-26T11:10:50.687Z,17.20
2017-11-26T11:13:18.143Z,16.53
2017-11-26T11:15:45.688Z,15.73
2017-11-26T11:18:13.118Z,15.63
2017-11-26T11:20:40.620Z,15.20
2017-11-26T11:23:08.044Z,17.20
2017-11-26T11:25:35.492Z,15.77
2017-11-26T11:28:02.943Z,17.30
2017-11-26T11:30:30.448Z,16.50
2017-11-26T11:32:57.995Z,16.02
2017-11-26T11:35:25.453Z,15.30
2017-11-26T11:37:52.913Z,16.15
2017-11-26T11:40:20.373Z,14.63
2017-11-26T11:42:47.808Z,15.02
2017-11-26T11:45:15.269Z,14.77
2017-11-26T11:47:42.756Z,15.05
2017-11-26T11:50:10.195Z,14.70
2017-11-26T11:52:37.628Z,14.87
2017-11-26T11:55:05.080Z,14.40
2017-11-26T11:57:33.276Z,15.53
2017-11-26T12:00:00.752Z,15.55
2017-11-26T12:02:28.199Z,14.35
2017-11-26T12:04:55.635Z,14.70
2017-11-26T12:07:23.127Z,14.25
2017-11-26T12:09:50.577Z,13.75
2017-11-26T12:12:18.055Z,13.60
2017-11-26T12:14:45.487Z,13.40
2017-11-26T12:17:12.949Z,13.40
2017-11-26T12:19:40.432Z,12.90
2017-11-26T12:22:07.867Z,12.68
2017-11-26T12:24:35.308Z,13.40
2017-11-26T12:27:02.755Z,12.30
2017-11-26T12:29:30.235Z,12.10
2017-11-26T12:31:57.681Z,11.60
2017-11-26T12:34:25.118Z,11.52
2017-11-26T12:36:52.562Z,12.20
2017-11-26T12:39:19.984Z,13.18
2017-11-26T12:41:47.426Z,12.60
2017-11-26T12:44:14.877Z,13.18
2017-11-26T12:46:42.363Z,13.35
2017-11-26T12:49:10.554Z,12.32
2017-11-26T12:51:37.991Z,12.07
2017-11-26T12:54:06.867Z,12.60
2017-11-26T12:56:34.314Z,13.10
2017-11-26T12:59:01.767Z,12.80
2017-11-26T13:01:29.210Z,12.20
2017-11-26T13:03:56.672Z,12.10
2017-11-26T13:06:24.124Z,11.90
2017-11-26T13:08:51.573Z,11.25
2017-11-26T13:11:19.006Z,11.25
2017-11-26T13:13:46.529Z,11.00
2017-11-26T13:16:13.967Z,11.10
2017-11-26T13:18:41.434Z,9.90
2017-11-26T13:21:08.867Z,9.10
2017-11-26T13:23:36.423Z,8.52
2017-11-26T13:26:03.853Z,8.80
2017-11-26T13:28:31.292Z,7.65
2017-11-26T13:30:59.485Z,7.80
2017-11-26T13:33:26.925Z,6.90
2017-11-26T13:35:55.147Z,7.30
2017-11-26T13:38:22.600Z,6.45
2017-11-26T13:40:50.797Z,5.90
2017-11-26T13:43:18.288Z,5.12
2017-11-26T13:45:45.740Z,5.20
2017-11-26T13:48:13.181Z,4.00
2017-11-26T13:50:40.673Z,4.10
2017-11-26T13:53:08.092Z,4.30
2017-11-26T13:55:35.523Z,3.90
2017-11-26T13:58:03.743Z,3.47
2017-11-26T14:00:31.203Z,3.50
2017-11-26T14:02:59.422Z,3.40
2017-11-26T14:05:26.945Z,3.65
2017-11-26T14:07:54.400Z,3.37
2017-11-26T14:10:21.853Z,3.75
2017-11-26T14:12:49.307Z,4.30
2017-11-26T14:15:16.871Z,4.40
2017-11-26T14:17:44.325Z,3.92
2017-11-26T14:20:11.765Z,4.35
2017-11-26T14:22:39.210Z,3.92
2017-11-26T14:25:06.701Z,3.58
2017-11-26T14:27:34.156Z,3.62
2017-11-26T14:30:01.597Z,3.70
2017-11-26T14:32:29.058Z,3.73
2017-11-26T14:34:56.496Z,3.50
2017-11-26T14:37:23.932Z,3.40
2017-11-26T14:39:51.368Z,3.20
2017-11-26T14:42:19.620Z,3.20
2017-11-26T14:44:47.065Z,3.40
2017-11-26T14:47:14.523Z,3.30
2017-11-26T14:49:41.976Z,3.40
2017-11-26T14:52:09.427Z,4.17
2017-11-26T14:54:36.868Z,3.90
2017-11-26T14:57:04.314Z,4.28
2017-11-26T14:59:31.775Z,3.87
2017-11-26T15:01:59.352Z,3.97
2017-11-26T15:04:26.802Z,3.70
2017-11-26T15:06:54.281Z,3.42
2017-11-26T15:09:21.717Z,3.65
2017-11-26T15:11:49.279Z,3.65
2017-11-26T15:14:16.705Z,3.80
2017-11-26T15:16:44.141Z,3.20
2017-11-26T15:19:11.576Z,3.67
2017-11-26T15:21:39.019Z,3.70
2017-11-26T15:24:06.470Z,3.47
2017-11-26T15:26:33.927Z,4.77
2017-11-26T15:29:01.366Z,3.60
2017-11-26T15:31:28.779Z,3.25
2017-11-26T15:33:56.212Z,2.65
2017-11-26T15:36:23.652Z,3.40
2017-11-26T15:38:51.075Z,3.20
2017-11-26T15:41:18.539Z,2.80
2017-11-26T15:43:45.994Z,3.45
2017-11-26T15:46:14.192Z,3.30
2017-11-26T15:48:41.621Z,3.72
2017-11-26T15:51:09.849Z,3.78
2017-11-26T15:53:37.429Z,3.90
2017-11-26T15:56:04.865Z,3.70
2017-11-26T15:58:32.308Z,4.10
2017-11-26T16:00:59.802Z,3.75
2017-11-26T16:03:28.056Z,2.90
2017-11-26T16:05:55.516Z,3.70
2017-11-26T16:08:22.951Z,3.15
2017-11-26T16:10:50.392Z,3.80
2017-11-26T16:13:17.814Z,3.10
2017-11-26T16:15:46.033Z,3.53
2017-11-26T16:18:13.520Z,3.20
2017-11-26T16:20:40.952Z,3.43
2017-11-26T16:23:08.375Z,3.40
2017-11-26T16:25:35.812Z,3.40
2017-11-26T16:28:03.244Z,2.90
2017-11-26T16:30:30.687Z,2.60
2017-11-26T16:32:58.130Z,2.80
2017-11-26T16:35:25.704Z,2.80
2017-11-26T16:37:53.148Z,3.00
2017-11-26T16:40:20.582Z,3.50
2017-11-26T16:42:48.022Z,3.05
2017-11-26T16:45:15.452Z,3.20
2017-11-26T16:47:43.707Z,3.10
2017-11-26T16:50:11.160Z,3.10
2017-11-26T16:52:38.615Z,3.40
2017-11-26T16:55:06.048Z,3.30
2017-11-26T16:57:33.541Z,3.40
2017-11-26T17:00:01.004Z,3.15
2017-11-26T17:02:28.561Z,3.25
2017-11-26T17:04:55.997Z,3.10
2017-11-26T17:07:23.435Z,3.28
2017-11-26T17:09:50.855Z,3.08
2017-11-26T17:12:19.092Z,3.50
2017-11-26T17:14:46.507Z,3.78
2017-11-26T17:17:13.949Z,4.15
2017-11-26T17:19:42.136Z,3.50
2017-11-26T17:22:09.588Z,3.40
2017-11-26T17:24:37.012Z,3.70
2017-11-26T17:27:04.541Z,3.95
2017-11-26T17:29:32.012Z,3.70
2017-11-26T17:31:59.423Z,3.95
2017-11-26T17:34:26.908Z,3.40
2017-11-26T17:36:54.332Z,4.00
2017-11-26T17:39:21.788Z,3.28
2017-11-26T17:41:49.256Z,3.80
2017-11-26T17:44:16.687Z,3.80
2017-11-26T17:46:44.116Z,3.90
2017-11-26T17:49:12.321Z,3.13
2017-11-26T17:51:39.751Z,2.97
2017-11-26T17:54:07.203Z,3.30
2017-11-26T17:56:34.623Z,3.03
2017-11-26T17:59:02.071Z,3.47
2017-11-26T18:01:29.548Z,3.20
2017-11-26T18:03:57.007Z,3.50
2017-11-26T18:06:24.446Z,2.90
2017-11-26T18:08:51.872Z,2.83
2017-11-26T18:11:19.304Z,2.90
2017-11-26T18:13:47.505Z,3.10
2017-11-26T18:16:14.945Z,3.05
2017-11-26T18:18:43.371Z,3.00
2017-11-26T18:21:10.799Z,3.30
2017-11-26T18:23:38.233Z,3.10
2017-11-26T18:26:06.552Z,3.57
2017-11-26T18:28:33.992Z,2.90
2017-11-26T18:31:01.424Z,3.70
2017-11-26T18:33:29.673Z,3.30
2017-11-26T18:35:57.116Z,4.00
2017-11-26T18:38:24.554Z,3.42
2017-11-26T18:40:52.016Z,3.80
2017-11-26T18:43:19.463Z,3.10
2017-11-26T18:45:46.900Z,4.00
2017-11-26T18:48:14.324Z,3.62
2017-11-26T18:50:42.547Z,4.20
2017-11-26T18:53:10.124Z,3.87
2017-11-26T18:55:37.584Z,4.32
2017-11-26T18:58:05.012Z,4.20
2017-11-26T19:00:32.448Z,4.07
2017-11-26T19:02:59.943Z,3.80
2017-11-26T19:05:27.392Z,3.55
2017-11-26T19:07:54.847Z,3.70
2017-11-26T19:10:22.308Z,3.78
2017-11-26T19:12:49.768Z,3.40
2017-11-26T19:15:17.228Z,3.40
2017-11-26T19:17:44.680Z,3.35
2017-11-26T19:20:12.140Z,3.87
2017-11-26T19:22:39.595Z,3.58
2017-11-26T19:25:07.438Z,3.70
2017-11-26T19:27:34.839Z,3.90
2017-11-26T19:30:02.377Z,3.60
2017-11-26T19:32:29.845Z,4.25
2017-11-26T19:34:57.280Z,4.10
2017-11-26T19:37:24.747Z,3.75
2017-11-26T19:39:52.196Z,3.80
2017-11-26T19:42:19.633Z,3.67
2017-11-26T19:44:47.207Z,3.70
2017-11-26T19:47:14.801Z,3.60
2017-11-26T19:49:42.223Z,4.30
2017-11-26T19:52:09.656Z,3.78
2017-11-26T19:54:37.082Z,3.40
2017-11-26T19:57:04.520Z,4.00
2017-11-26T19:59:31.964Z,4.97
2017-11-26T20:01:59.400Z,5.50
2017-11-26T20:04:26.837Z,4.82
2017-11-26T20:06:54.274Z,4.72
2017-11-26T20:09:21.707Z,3.70
2017-11-26T20:11:49.247Z,3.62
2017-11-26T20:14:16.692Z,3.65
2017-11-26T20:16:44.147Z,3.87
2017-11-26T20:19:11.572Z,3.40
2017-11-26T20:21:39.044Z,3.80
2017-11-26T20:24:06.463Z,4.23
2017-11-26T20:26:33.899Z,3.00
2017-11-26T20:29:01.332Z,4.68
2017-11-26T20:31:28.752Z,3.60
2017-11-26T20:33:56.250Z,3.83
2017-11-26T20:36:23.701Z,3.50
2017-11-26T20:38:51.164Z,3.87
2017-11-26T20:41:18.637Z,3.92
2017-11-26T20:43:46.080Z,3.40
2017-11-26T20:46:13.552Z,3.50
2017-11-26T20:48:41.112Z,3.80
2017-11-26T20:51:08.553Z,3.40
2017-11-26T20:53:36.019Z,3.70
2017-11-26T20:56:03.458Z,4.00
2017-11-26T20:58:30.880Z,3.40
2017-11-26T21:00:58.313Z,3.30
2017-11-26T21:03:26.562Z,3.50
2017-11-26T21:05:54.010Z,3.67
2017-11-26T21:08:21.577Z,3.28
2017-11-26T21:10:49.012Z,3.70
2017-11-26T21:13:16.440Z,3.72
2017-11-26T21:15:43.939Z,3.80
2017-11-26T21:18:11.388Z,3.50
2017-11-26T21:20:38.816Z,3.60
2017-11-26T21:23:06.263Z,3.40
2017-11-26T21:25:33.688Z,2.85
2017-11-26T21:28:01.211Z,3.00
2017-11-26T21:30:28.641Z,2.90
2017-11-26T21:32:56.078Z,3.00
2017-11-26T21:35:24.302Z,2.70
2017-11-26T21:37:51.730Z,3.10
2017-11-26T21:40:19.155Z,2.85
2017-11-26T21:42:47.392Z,3.17
2017-11-26T21:45:14.823Z,4.10
2017-11-26T21:47:42.304Z,3.05
2017-11-26T21:50:09.733Z,2.90
2017-11-26T21:52:37.177Z,3.33
2017-11-26T21:55:04.614Z,3.00
2017-11-26T21:57:32.832Z,3.53
2017-11-26T22:00:00.389Z,3.20
2017-11-26T22:02:27.823Z,3.40
2017-11-26T22:04:55.250Z,3.75
2017-11-26T22:07:23.451Z,4.30
2017-11-26T22:09:50.943Z,4.00
2017-11-26T22:12:18.391Z,4.10
2017-11-26T22:14:45.856Z,3.78
2017-11-26T22:17:13.287Z,4.10
2017-11-26T22:19:40.772Z,3.70
2017-11-26T22:22:08.220Z,4.10
2017-11-26T22:24:35.890Z,3.80
2017-11-26T22:27:03.317Z,3.70
2017-11-26T22:29:30.754Z,3.60
2017-11-26T22:31:58.359Z,3.83
2017-11-26T22:34:25.922Z,3.90
2017-11-26T22:36:53.357Z,3.78
2017-11-26T22:39:20.817Z,3.53
2017-11-26T22:41:48.248Z,4.22
2017-11-26T22:44:15.730Z,3.37
2017-11-26T22:46:43.156Z,3.60
2017-11-26T22:49:10.590Z,3.42
2017-11-26T22:51:39.767Z,3.75
2017-11-26T22:54:07.509Z,3.70
2017-11-26T22:56:34.980Z,3.53
2017-11-26T22:59:02.423Z,4.12
2017-11-26T23:01:29.879Z,3.12
2017-11-26T23:03:57.340Z,3.50
2017-11-26T23:06:24.780Z,3.28
2017-11-26T23:08:52.235Z,3.80
2017-11-26T23:11:19.684Z,3.50
2017-11-26T23:13:47.130Z,3.70
2017-11-26T23:16:14.556Z,3.60
2017-11-26T23:18:42.744Z,3.80
2017-11-26T23:21:10.952Z,4.10
2017-11-26T23:23:38.508Z,3.90
2017-11-26T23:26:05.956Z,3.65
2017-11-26T23:28:33.447Z,3.60
2017-11-26T23:31:00.883Z,3.60
2017-11-26T23:33:28.439Z,3.80
2017-11-26T23:35:55.919Z,3.90
2017-11-26T23:38:23.461Z,3.70
2017-11-26T23:40:50.910Z,4.00
2017-11-26T23:43:18.368Z,4.30
2017-11-26T23:45:45.848Z,4.20
2017-11-26T23:48:13.387Z,4.60
2017-11-26T23:50:40.812Z,5.43
2017-11-26T23:53:08.246Z,4.72
2017-11-26T23:55:36.467Z,4.62
2017-11-26T23:58:03.879Z,4.55
